sensor_id;sensor_type;location;lat;lon;timestamp;temperature;humidity
11035;DHT22;5571;48.110;-1.706;2023-02-07T00:00:02;5.00;99.90
11035;DHT22;5571;48.110;-1.706;2023-02-07T00:02:29;5.00;99.90
11035;DHT22;5571;48.110;-1.706;2023-02-07T00:04:55;5.00;99.90
11035;DHT22;5571;48.110;-1.706;2023-02-07T00:07:20;4.90;99.90
11035;DHT22;5571;48.110;-1.706;2023-02-07T00:09:46;4.90;99.90
11035;DHT22;5571;48.110;-1.706;2023-02-07T00:12:12;5.00;99.90
11035;DHT22;5571;48.110;-1.706;2023-02-07T00:14:37;4.90;99.90
11035;DHT22;5571;48.110;-1.706;2023-02-07T00:17:03;4.90;99.90
11035;DHT22;5571;48.110;-1.706;2023-02-07T00:19:29;4.90;99.90
11035;DHT22;5571;48.110;-1.706;2023-02-07T00:21:55;4.90;99.90
11035;DHT22;5571;48.110;-1.706;2023-02-07T00:24:20;4.90;99.90
11035;DHT22;5571;48.110;-1.706;2023-02-07T00:26:46;4.80;99.90
11035;DHT22;5571;48.110;-1.706;2023-02-07T00:29:12;4.80;99.90
11035;DHT22;5571;48.110;-1.706;2023-02-07T00:31:37;4.70;99.90
11035;DHT22;5571;48.110;-1.706;2023-02-07T00:34:06;4.70;99.90
11035;DHT22;5571;48.110;-1.706;2023-02-07T00:36:33;4.80;99.90
11035;DHT22;5571;48.110;-1.706;2023-02-07T00:39:02;4.70;99.90
11035;DHT22;5571;48.110;-1.706;2023-02-07T00:41:29;4.70;99.90
11035;DHT22;5571;48.110;-1.706;2023-02-07T00:43:55;4.70;99.90
11035;DHT22;5571;48.110;-1.706;2023-02-07T00:46:21;4.70;99.90
11035;DHT22;5571;48.110;-1.706;2023-02-07T00:48:46;4.70;99.90
11035;DHT22;5571;48.110;-1.706;2023-02-07T00:51:12;4.70;99.90
11035;DHT22;5571;48.110;-1.706;2023-02-07T00:53:39;4.60;99.90
11035;DHT22;5571;48.110;-1.706;2023-02-07T00:56:06;4.60;99.90
11035;DHT22;5571;48.110;-1.706;2023-02-07T00:58:32;4.70;99.90
11035;DHT22;5571;48.110;-1.706;2023-02-07T01:00:58;4.60;99.90
11035;DHT22;5571;48.110;-1.706;2023-02-07T01:03:24;4.60;99.90
11035;DHT22;5571;48.110;-1.706;2023-02-07T01:05:49;4.60;99.90
11035;DHT22;5571;48.110;-1.706;2023-02-07T01:08:15;4.60;99.90
11035;DHT22;5571;48.110;-1.706;2023-02-07T01:10:42;4.60;99.90
11035;DHT22;5571;48.110;-1.706;2023-02-07T01:13:09;4.60;99.90
11035;DHT22;5571;48.110;-1.706;2023-02-07T01:15:37;4.60;99.90
11035;DHT22;5571;48.110;-1.706;2023-02-07T01:18:04;4.50;99.90
11035;DHT22;5571;48.110;-1.706;2023-02-07T01:20:30;4.50;99.90
11035;DHT22;5571;48.110;-1.706;2023-02-07T01:22:56;4.50;99.90
11035;DHT22;5571;48.110;-1.706;2023-02-07T01:25:21;4.50;99.90
11035;DHT22;5571;48.110;-1.706;2023-02-07T01:27:47;4.50;99.90
11035;DHT22;5571;48.110;-1.706;2023-02-07T01:30:13;4.50;99.90
11035;DHT22;5571;48.110;-1.706;2023-02-07T01:32:38;4.40;99.90
11035;DHT22;5571;48.110;-1.706;2023-02-07T01:35:05;4.40;99.90
11035;DHT22;5571;48.110;-1.706;2023-02-07T01:37:31;4.40;99.90
11035;DHT22;5571;48.110;-1.706;2023-02-07T01:39:56;4.40;99.90
11035;DHT22;5571;48.110;-1.706;2023-02-07T01:42:24;4.40;99.90
11035;DHT22;5571;48.110;-1.706;2023-02-07T01:47:23;4.40;99.90
11035;DHT22;5571;48.110;-1.706;2023-02-07T01:49:51;4.40;99.90
11035;DHT22;5571;48.110;-1.706;2023-02-07T01:52:25;4.30;99.90
11035;DHT22;5571;48.110;-1.706;2023-02-07T01:54:54;4.40;99.90
11035;DHT22;5571;48.110;-1.706;2023-02-07T01:57:23;4.40;99.90
11035;DHT22;5571;48.110;-1.706;2023-02-07T01:59:51;4.30;99.90
11035;DHT22;5571;48.110;-1.706;2023-02-07T02:02:19;4.30;99.90
11035;DHT22;5571;48.110;-1.706;2023-02-07T02:04:46;4.40;99.90
11035;DHT22;5571;48.110;-1.706;2023-02-07T02:07:14;4.30;99.90
11035;DHT22;5571;48.110;-1.706;2023-02-07T02:09:40;4.30;99.90
11035;DHT22;5571;48.110;-1.706;2023-02-07T02:12:12;4.20;99.90
11035;DHT22;5571;48.110;-1.706;2023-02-07T02:31:31;4.10;99.90
11035;DHT22;5571;48.110;-1.706;2023-02-07T02:34:31;4.10;99.90
11035;DHT22;5571;48.110;-1.706;2023-02-07T02:37:29;4.10;99.90
11035;DHT22;5571;48.110;-1.706;2023-02-07T02:40:02;4.00;99.90
11035;DHT22;5571;48.110;-1.706;2023-02-07T02:42:41;3.90;99.90
11035;DHT22;5571;48.110;-1.706;2023-02-07T02:45:48;3.90;99.90
11035;DHT22;5571;48.110;-1.706;2023-02-07T02:48:11;3.90;99.90
11035;DHT22;5571;48.110;-1.706;2023-02-07T02:50:37;3.80;99.90
11035;DHT22;5571;48.110;-1.706;2023-02-07T02:53:04;3.80;99.90
11035;DHT22;5571;48.110;-1.706;2023-02-07T02:58:25;3.80;99.90
11035;DHT22;5571;48.110;-1.706;2023-02-07T03:04:15;3.80;99.90
11035;DHT22;5571;48.110;-1.706;2023-02-07T03:12:26;3.80;99.90
11035;DHT22;5571;48.110;-1.706;2023-02-07T03:15:02;3.70;99.90
11035;DHT22;5571;48.110;-1.706;2023-02-07T03:17:31;3.70;99.90
11035;DHT22;5571;48.110;-1.706;2023-02-07T03:20:12;3.60;99.90
11035;DHT22;5571;48.110;-1.706;2023-02-07T03:22:40;3.60;99.90
11035;DHT22;5571;48.110;-1.706;2023-02-07T03:25:07;3.60;99.90
11035;DHT22;5571;48.110;-1.706;2023-02-07T03:27:35;3.60;99.90
11035;DHT22;5571;48.110;-1.706;2023-02-07T03:30:05;3.70;99.90
11035;DHT22;5571;48.110;-1.706;2023-02-07T03:32:36;3.60;99.90
11035;DHT22;5571;48.110;-1.706;2023-02-07T03:37:35;3.60;99.90
11035;DHT22;5571;48.110;-1.706;2023-02-07T03:40:03;3.60;99.90
11035;DHT22;5571;48.110;-1.706;2023-02-07T03:42:39;3.60;99.90
11035;DHT22;5571;48.110;-1.706;2023-02-07T03:45:11;3.50;99.90
11035;DHT22;5571;48.110;-1.706;2023-02-07T03:47:37;3.50;99.90
11035;DHT22;5571;48.110;-1.706;2023-02-07T03:50:03;3.50;99.90
11035;DHT22;5571;48.110;-1.706;2023-02-07T03:52:29;3.50;99.90
11035;DHT22;5571;48.110;-1.706;2023-02-07T03:54:54;3.40;99.90
11035;DHT22;5571;48.110;-1.706;2023-02-07T03:57:20;3.40;99.90
11035;DHT22;5571;48.110;-1.706;2023-02-07T03:59:46;3.40;99.90
11035;DHT22;5571;48.110;-1.706;2023-02-07T04:02:11;3.40;99.90
11035;DHT22;5571;48.110;-1.706;2023-02-07T04:04:37;3.30;99.90
11035;DHT22;5571;48.110;-1.706;2023-02-07T04:07:03;3.40;99.90
11035;DHT22;5571;48.110;-1.706;2023-02-07T04:09:29;3.30;99.90
11035;DHT22;5571;48.110;-1.706;2023-02-07T04:11:54;3.30;99.90
11035;DHT22;5571;48.110;-1.706;2023-02-07T04:14:20;3.30;99.90
11035;DHT22;5571;48.110;-1.706;2023-02-07T04:16:46;3.30;99.90
11035;DHT22;5571;48.110;-1.706;2023-02-07T04:19:12;3.30;99.90
11035;DHT22;5571;48.110;-1.706;2023-02-07T04:21:38;3.30;99.90
11035;DHT22;5571;48.110;-1.706;2023-02-07T04:24:04;3.30;99.90
11035;DHT22;5571;48.110;-1.706;2023-02-07T04:26:30;3.30;99.90
11035;DHT22;5571;48.110;-1.706;2023-02-07T04:28:55;3.20;99.90
11035;DHT22;5571;48.110;-1.706;2023-02-07T04:31:21;3.20;99.90
11035;DHT22;5571;48.110;-1.706;2023-02-07T04:33:47;3.20;99.90
11035;DHT22;5571;48.110;-1.706;2023-02-07T04:36:13;3.20;99.90
11035;DHT22;5571;48.110;-1.706;2023-02-07T04:38:39;3.20;99.90
11035;DHT22;5571;48.110;-1.706;2023-02-07T04:41:05;3.20;99.90
11035;DHT22;5571;48.110;-1.706;2023-02-07T04:43:33;3.20;99.90
11035;DHT22;5571;48.110;-1.706;2023-02-07T04:45:59;3.10;99.90
11035;DHT22;5571;48.110;-1.706;2023-02-07T04:48:25;3.10;99.90
11035;DHT22;5571;48.110;-1.706;2023-02-07T04:50:50;3.10;99.90
11035;DHT22;5571;48.110;-1.706;2023-02-07T04:53:16;3.10;99.90
11035;DHT22;5571;48.110;-1.706;2023-02-07T04:55:42;3.10;99.90
11035;DHT22;5571;48.110;-1.706;2023-02-07T04:58:07;3.10;99.90
11035;DHT22;5571;48.110;-1.706;2023-02-07T05:00:33;3.10;99.90
11035;DHT22;5571;48.110;-1.706;2023-02-07T05:02:59;3.10;99.90
11035;DHT22;5571;48.110;-1.706;2023-02-07T05:05:25;3.00;99.90
11035;DHT22;5571;48.110;-1.706;2023-02-07T05:07:50;3.10;99.90
11035;DHT22;5571;48.110;-1.706;2023-02-07T05:10:16;3.00;99.90
11035;DHT22;5571;48.110;-1.706;2023-02-07T05:12:42;3.10;99.90
11035;DHT22;5571;48.110;-1.706;2023-02-07T05:15:08;3.10;99.90
11035;DHT22;5571;48.110;-1.706;2023-02-07T05:17:34;3.10;99.90
11035;DHT22;5571;48.110;-1.706;2023-02-07T05:20:00;3.10;99.90
11035;DHT22;5571;48.110;-1.706;2023-02-07T05:22:26;3.10;99.90
11035;DHT22;5571;48.110;-1.706;2023-02-07T05:24:52;3.10;99.90
11035;DHT22;5571;48.110;-1.706;2023-02-07T05:27:18;3.10;99.90
11035;DHT22;5571;48.110;-1.706;2023-02-07T05:29:43;3.10;99.90
11035;DHT22;5571;48.110;-1.706;2023-02-07T05:32:13;3.10;99.90
11035;DHT22;5571;48.110;-1.706;2023-02-07T05:34:58;3.10;99.90
11035;DHT22;5571;48.110;-1.706;2023-02-07T05:37:24;3.20;99.90
11035;DHT22;5571;48.110;-1.706;2023-02-07T05:39:49;3.20;99.90
11035;DHT22;5571;48.110;-1.706;2023-02-07T05:42:15;3.20;99.90
11035;DHT22;5571;48.110;-1.706;2023-02-07T05:44:41;3.20;99.90
11035;DHT22;5571;48.110;-1.706;2023-02-07T05:47:06;3.30;99.90
11035;DHT22;5571;48.110;-1.706;2023-02-07T05:49:32;3.30;99.90
11035;DHT22;5571;48.110;-1.706;2023-02-07T05:51:58;3.40;99.90
11035;DHT22;5571;48.110;-1.706;2023-02-07T05:54:24;3.40;99.90
11035;DHT22;5571;48.110;-1.706;2023-02-07T05:56:49;3.40;99.90
11035;DHT22;5571;48.110;-1.706;2023-02-07T05:59:15;3.40;99.90
11035;DHT22;5571;48.110;-1.706;2023-02-07T06:01:41;3.40;99.90
11035;DHT22;5571;48.110;-1.706;2023-02-07T06:04:07;3.40;99.90
11035;DHT22;5571;48.110;-1.706;2023-02-07T06:06:32;3.40;99.90
11035;DHT22;5571;48.110;-1.706;2023-02-07T06:08:58;3.40;99.90
11035;DHT22;5571;48.110;-1.706;2023-02-07T06:11:23;3.30;99.90
11035;DHT22;5571;48.110;-1.706;2023-02-07T06:13:49;3.40;99.90
11035;DHT22;5571;48.110;-1.706;2023-02-07T06:16:15;3.30;99.90
11035;DHT22;5571;48.110;-1.706;2023-02-07T06:18:40;3.40;99.90
11035;DHT22;5571;48.110;-1.706;2023-02-07T06:21:06;3.30;99.90
11035;DHT22;5571;48.110;-1.706;2023-02-07T06:23:32;3.40;99.90
11035;DHT22;5571;48.110;-1.706;2023-02-07T06:25:57;3.50;99.90
11035;DHT22;5571;48.110;-1.706;2023-02-07T06:28:23;3.70;99.90
11035;DHT22;5571;48.110;-1.706;2023-02-07T06:30:52;3.70;99.90
11035;DHT22;5571;48.110;-1.706;2023-02-07T06:33:17;3.80;99.90
11035;DHT22;5571;48.110;-1.706;2023-02-07T06:35:43;3.80;99.90
11035;DHT22;5571;48.110;-1.706;2023-02-07T06:38:16;3.80;99.90
11035;DHT22;5571;48.110;-1.706;2023-02-07T06:40:42;3.80;99.90
11035;DHT22;5571;48.110;-1.706;2023-02-07T06:43:08;3.80;99.90
11035;DHT22;5571;48.110;-1.706;2023-02-07T06:45:34;3.80;99.90
11035;DHT22;5571;48.110;-1.706;2023-02-07T06:48:00;3.70;99.90
11035;DHT22;5571;48.110;-1.706;2023-02-07T06:50:26;3.60;99.90
11035;DHT22;5571;48.110;-1.706;2023-02-07T06:52:52;3.60;99.90
11035;DHT22;5571;48.110;-1.706;2023-02-07T06:55:17;3.60;99.90
11035;DHT22;5571;48.110;-1.706;2023-02-07T06:57:43;3.60;99.90
11035;DHT22;5571;48.110;-1.706;2023-02-07T07:00:09;3.50;99.90
11035;DHT22;5571;48.110;-1.706;2023-02-07T07:02:35;3.40;99.90
11035;DHT22;5571;48.110;-1.706;2023-02-07T07:05:00;3.30;99.90
11035;DHT22;5571;48.110;-1.706;2023-02-07T07:07:26;3.20;99.90
11035;DHT22;5571;48.110;-1.706;2023-02-07T07:09:52;3.10;99.90
11035;DHT22;5571;48.110;-1.706;2023-02-07T07:12:17;3.10;99.90
11035;DHT22;5571;48.110;-1.706;2023-02-07T07:14:43;3.00;99.90
11035;DHT22;5571;48.110;-1.706;2023-02-07T07:17:08;3.00;99.90
11035;DHT22;5571;48.110;-1.706;2023-02-07T07:19:34;2.90;99.90
11035;DHT22;5571;48.110;-1.706;2023-02-07T07:21:59;2.90;99.90
11035;DHT22;5571;48.110;-1.706;2023-02-07T07:24:25;2.90;99.90
11035;DHT22;5571;48.110;-1.706;2023-02-07T07:26:51;2.90;99.90
11035;DHT22;5571;48.110;-1.706;2023-02-07T07:29:17;2.80;99.90
11035;DHT22;5571;48.110;-1.706;2023-02-07T07:31:43;2.90;99.90
11035;DHT22;5571;48.110;-1.706;2023-02-07T07:34:09;2.80;99.90
11035;DHT22;5571;48.110;-1.706;2023-02-07T07:36:35;2.80;99.90
11035;DHT22;5571;48.110;-1.706;2023-02-07T07:39:00;2.90;99.90
11035;DHT22;5571;48.110;-1.706;2023-02-07T07:41:26;2.80;99.90
11035;DHT22;5571;48.110;-1.706;2023-02-07T07:43:52;2.80;99.90
11035;DHT22;5571;48.110;-1.706;2023-02-07T07:46:18;2.80;99.90
11035;DHT22;5571;48.110;-1.706;2023-02-07T07:48:43;2.80;99.90
11035;DHT22;5571;48.110;-1.706;2023-02-07T07:51:09;2.80;99.90
11035;DHT22;5571;48.110;-1.706;2023-02-07T07:53:34;2.80;99.90
11035;DHT22;5571;48.110;-1.706;2023-02-07T07:56:00;2.80;99.90
11035;DHT22;5571;48.110;-1.706;2023-02-07T07:58:26;2.80;99.90
11035;DHT22;5571;48.110;-1.706;2023-02-07T08:00:52;2.80;99.90
11035;DHT22;5571;48.110;-1.706;2023-02-07T08:03:18;2.80;99.90
11035;DHT22;5571;48.110;-1.706;2023-02-07T08:05:45;2.80;99.90
11035;DHT22;5571;48.110;-1.706;2023-02-07T08:08:11;2.80;99.90
11035;DHT22;5571;48.110;-1.706;2023-02-07T08:10:38;2.80;99.90
11035;DHT22;5571;48.110;-1.706;2023-02-07T08:13:04;2.80;99.90
11035;DHT22;5571;48.110;-1.706;2023-02-07T08:15:29;2.80;99.90
11035;DHT22;5571;48.110;-1.706;2023-02-07T08:17:55;2.80;99.90
11035;DHT22;5571;48.110;-1.706;2023-02-07T08:20:21;2.80;99.90
11035;DHT22;5571;48.110;-1.706;2023-02-07T08:22:47;2.80;99.90
11035;DHT22;5571;48.110;-1.706;2023-02-07T08:25:12;2.90;99.90
11035;DHT22;5571;48.110;-1.706;2023-02-07T08:27:38;2.90;99.90
11035;DHT22;5571;48.110;-1.706;2023-02-07T08:30:06;3.00;99.90
11035;DHT22;5571;48.110;-1.706;2023-02-07T08:32:32;3.00;99.90
11035;DHT22;5571;48.110;-1.706;2023-02-07T08:34:57;3.10;99.90
11035;DHT22;5571;48.110;-1.706;2023-02-07T08:37:23;3.10;99.90
11035;DHT22;5571;48.110;-1.706;2023-02-07T08:39:49;3.20;99.90
11035;DHT22;5571;48.110;-1.706;2023-02-07T08:42:18;3.20;99.90
11035;DHT22;5571;48.110;-1.706;2023-02-07T08:44:46;3.20;99.90
11035;DHT22;5571;48.110;-1.706;2023-02-07T08:47:11;3.30;99.90
11035;DHT22;5571;48.110;-1.706;2023-02-07T08:49:37;3.30;99.90
11035;DHT22;5571;48.110;-1.706;2023-02-07T08:52:03;3.40;99.90
11035;DHT22;5571;48.110;-1.706;2023-02-07T08:54:29;3.50;99.90
11035;DHT22;5571;48.110;-1.706;2023-02-07T08:56:55;3.50;99.90
11035;DHT22;5571;48.110;-1.706;2023-02-07T08:59:21;3.50;99.90
11035;DHT22;5571;48.110;-1.706;2023-02-07T09:01:46;3.60;99.90
11035;DHT22;5571;48.110;-1.706;2023-02-07T09:04:12;3.60;99.90
11035;DHT22;5571;48.110;-1.706;2023-02-07T09:06:38;3.80;99.90
11035;DHT22;5571;48.110;-1.706;2023-02-07T09:09:05;3.80;99.90
11035;DHT22;5571;48.110;-1.706;2023-02-07T09:11:30;3.90;99.90
11035;DHT22;5571;48.110;-1.706;2023-02-07T09:13:56;3.90;99.90
11035;DHT22;5571;48.110;-1.706;2023-02-07T09:16:22;4.00;99.90
11035;DHT22;5571;48.110;-1.706;2023-02-07T09:18:49;4.10;99.90
11035;DHT22;5571;48.110;-1.706;2023-02-07T09:21:17;4.20;99.90
11035;DHT22;5571;48.110;-1.706;2023-02-07T09:23:42;4.20;99.90
11035;DHT22;5571;48.110;-1.706;2023-02-07T09:26:09;4.20;99.90
11035;DHT22;5571;48.110;-1.706;2023-02-07T09:28:36;4.30;99.90
11035;DHT22;5571;48.110;-1.706;2023-02-07T09:31:09;4.30;99.90
11035;DHT22;5571;48.110;-1.706;2023-02-07T09:33:35;4.40;99.90
11035;DHT22;5571;48.110;-1.706;2023-02-07T09:36:01;4.50;99.90
11035;DHT22;5571;48.110;-1.706;2023-02-07T09:38:27;4.50;99.90
11035;DHT22;5571;48.110;-1.706;2023-02-07T09:40:53;4.60;99.90
11035;DHT22;5571;48.110;-1.706;2023-02-07T09:46:04;4.60;99.90
11035;DHT22;5571;48.110;-1.706;2023-02-07T09:48:47;4.80;99.90
11035;DHT22;5571;48.110;-1.706;2023-02-07T09:51:18;4.90;99.90
11035;DHT22;5571;48.110;-1.706;2023-02-07T09:54:04;5.00;99.90
11035;DHT22;5571;48.110;-1.706;2023-02-07T09:56:32;5.10;99.90
11035;DHT22;5571;48.110;-1.706;2023-02-07T09:59:22;5.30;99.90
11035;DHT22;5571;48.110;-1.706;2023-02-07T10:01:52;5.40;99.90
11035;DHT22;5571;48.110;-1.706;2023-02-07T10:06:55;5.60;99.90
11035;DHT22;5571;48.110;-1.706;2023-02-07T10:09:26;5.70;99.90
11035;DHT22;5571;48.110;-1.706;2023-02-07T10:17:58;6.00;99.90
11035;DHT22;5571;48.110;-1.706;2023-02-07T10:20:38;6.10;99.90
11035;DHT22;5571;48.110;-1.706;2023-02-07T10:31:00;6.60;99.90
11035;DHT22;5571;48.110;-1.706;2023-02-07T10:33:31;6.90;99.90
11035;DHT22;5571;48.110;-1.706;2023-02-07T10:36:04;7.00;99.90
11035;DHT22;5571;48.110;-1.706;2023-02-07T10:38:51;7.20;99.90
11035;DHT22;5571;48.110;-1.706;2023-02-07T10:41:36;7.30;99.90
11035;DHT22;5571;48.110;-1.706;2023-02-07T10:44:04;7.30;99.90
11035;DHT22;5571;48.110;-1.706;2023-02-07T10:46:32;7.30;99.90
11035;DHT22;5571;48.110;-1.706;2023-02-07T10:48:59;7.40;99.90
11035;DHT22;5571;48.110;-1.706;2023-02-07T10:51:28;7.50;99.90
11035;DHT22;5571;48.110;-1.706;2023-02-07T10:54:09;7.70;99.90
11035;DHT22;5571;48.110;-1.706;2023-02-07T10:56:58;7.90;99.90
11035;DHT22;5571;48.110;-1.706;2023-02-07T10:59:39;8.00;99.90
11035;DHT22;5571;48.110;-1.706;2023-02-07T11:05:00;8.20;99.90
11035;DHT22;5571;48.110;-1.706;2023-02-07T11:07:27;8.40;99.90
11035;DHT22;5571;48.110;-1.706;2023-02-07T11:10:19;8.50;99.90
11035;DHT22;5571;48.110;-1.706;2023-02-07T11:12:49;8.70;99.90
11035;DHT22;5571;48.110;-1.706;2023-02-07T11:15:21;9.00;99.90
11035;DHT22;5571;48.110;-1.706;2023-02-07T11:17:52;9.10;99.90
11035;DHT22;5571;48.110;-1.706;2023-02-07T11:20:34;9.10;99.90
11035;DHT22;5571;48.110;-1.706;2023-02-07T11:23:07;9.30;99.90
11035;DHT22;5571;48.110;-1.706;2023-02-07T11:25:38;9.20;99.90
11035;DHT22;5571;48.110;-1.706;2023-02-07T11:28:06;9.50;99.90
11035;DHT22;5571;48.110;-1.706;2023-02-07T11:30:34;9.50;99.90
11035;DHT22;5571;48.110;-1.706;2023-02-07T11:33:09;9.70;99.90
11035;DHT22;5571;48.110;-1.706;2023-02-07T11:36:21;9.70;99.90
11035;DHT22;5571;48.110;-1.706;2023-02-07T11:38:49;9.60;99.90
11035;DHT22;5571;48.110;-1.706;2023-02-07T11:41:26;9.60;99.80
11035;DHT22;5571;48.110;-1.706;2023-02-07T11:44:12;9.70;99.50
11035;DHT22;5571;48.110;-1.706;2023-02-07T11:46:41;9.80;99.20
11035;DHT22;5571;48.110;-1.706;2023-02-07T11:49:39;10.00;98.80
11035;DHT22;5571;48.110;-1.706;2023-02-07T11:52:06;10.30;98.00
11035;DHT22;5571;48.110;-1.706;2023-02-07T11:54:33;10.50;97.90
11035;DHT22;5571;48.110;-1.706;2023-02-07T11:57:09;10.50;97.40
11035;DHT22;5571;48.110;-1.706;2023-02-07T12:00:06;10.30;97.20
11035;DHT22;5571;48.110;-1.706;2023-02-07T12:02:31;10.40;97.40
11035;DHT22;5571;48.110;-1.706;2023-02-07T12:05:16;10.30;97.10
11035;DHT22;5571;48.110;-1.706;2023-02-07T12:07:51;10.10;97.10
11035;DHT22;5571;48.110;-1.706;2023-02-07T12:10:22;10.20;97.20
11035;DHT22;5571;48.110;-1.706;2023-02-07T12:13:10;10.00;97.90
11035;DHT22;5571;48.110;-1.706;2023-02-07T12:15:51;10.20;98.10
11035;DHT22;5571;48.110;-1.706;2023-02-07T12:24:20;10.50;97.20
11035;DHT22;5571;48.110;-1.706;2023-02-07T12:27:05;10.70;97.20
11035;DHT22;5571;48.110;-1.706;2023-02-07T12:30:19;10.70;96.80
11035;DHT22;5571;48.110;-1.706;2023-02-07T12:35:57;10.70;97.60
11035;DHT22;5571;48.110;-1.706;2023-02-07T12:38:31;10.70;97.50
11035;DHT22;5571;48.110;-1.706;2023-02-07T12:41:07;10.80;97.50
11035;DHT22;5571;48.110;-1.706;2023-02-07T12:43:47;10.80;97.20
11035;DHT22;5571;48.110;-1.706;2023-02-07T12:46:28;10.60;96.50
11035;DHT22;5571;48.110;-1.706;2023-02-07T13:00:25;10.70;96.40
11035;DHT22;5571;48.110;-1.706;2023-02-07T13:05:41;10.80;95.70
11035;DHT22;5571;48.110;-1.706;2023-02-07T13:11:06;10.50;95.40
11035;DHT22;5571;48.110;-1.706;2023-02-07T13:13:39;10.70;95.30
11035;DHT22;5571;48.110;-1.706;2023-02-07T13:16:22;10.70;94.80
11035;DHT22;5571;48.110;-1.706;2023-02-07T13:19:03;10.80;95.40
11035;DHT22;5571;48.110;-1.706;2023-02-07T13:22:04;10.60;95.50
11035;DHT22;5571;48.110;-1.706;2023-02-07T13:24:32;10.80;95.50
11035;DHT22;5571;48.110;-1.706;2023-02-07T13:27:02;10.90;95.80
11035;DHT22;5571;48.110;-1.706;2023-02-07T13:29:31;11.00;95.70
11035;DHT22;5571;48.110;-1.706;2023-02-07T13:32:01;11.20;95.80
11035;DHT22;5571;48.110;-1.706;2023-02-07T13:34:31;11.30;95.40
11035;DHT22;5571;48.110;-1.706;2023-02-07T13:37:00;11.40;95.20
11035;DHT22;5571;48.110;-1.706;2023-02-07T13:39:47;11.30;94.60
11035;DHT22;5571;48.110;-1.706;2023-02-07T13:50:29;11.70;94.60
11035;DHT22;5571;48.110;-1.706;2023-02-07T13:55:44;11.90;94.60
11035;DHT22;5571;48.110;-1.706;2023-02-07T14:01:22;11.80;94.50
11035;DHT22;5571;48.110;-1.706;2023-02-07T14:04:04;11.80;94.20
11035;DHT22;5571;48.110;-1.706;2023-02-07T14:06:38;11.80;94.40
11035;DHT22;5571;48.110;-1.706;2023-02-07T14:09:32;11.80;94.20
11035;DHT22;5571;48.110;-1.706;2023-02-07T14:12:05;11.90;94.10
11035;DHT22;5571;48.110;-1.706;2023-02-07T14:14:37;12.00;93.90
11035;DHT22;5571;48.110;-1.706;2023-02-07T14:17:17;11.90;94.10
11035;DHT22;5571;48.110;-1.706;2023-02-07T14:20:00;12.00;94.40
11035;DHT22;5571;48.110;-1.706;2023-02-07T14:27:31;11.90;94.50
11035;DHT22;5571;48.110;-1.706;2023-02-07T14:30:17;11.80;93.90
11035;DHT22;5571;48.110;-1.706;2023-02-07T14:33:03;11.70;93.70
11035;DHT22;5571;48.110;-1.706;2023-02-07T14:35:36;11.90;94.00
11035;DHT22;5571;48.110;-1.706;2023-02-07T14:41:09;11.60;93.60
11035;DHT22;5571;48.110;-1.706;2023-02-07T14:43:51;11.60;93.90
11035;DHT22;5571;48.110;-1.706;2023-02-07T14:46:35;11.60;93.80
11035;DHT22;5571;48.110;-1.706;2023-02-07T14:49:06;11.50;93.70
11035;DHT22;5571;48.110;-1.706;2023-02-07T14:54:21;11.50;94.20
11035;DHT22;5571;48.110;-1.706;2023-02-07T14:57:00;11.60;94.30
11035;DHT22;5571;48.110;-1.706;2023-02-07T14:59:49;11.80;94.20
11035;DHT22;5571;48.110;-1.706;2023-02-07T15:10:45;11.80;94.20
11035;DHT22;5571;48.110;-1.706;2023-02-07T15:13:22;12.00;94.30
11035;DHT22;5571;48.110;-1.706;2023-02-07T15:21:32;11.70;93.90
11035;DHT22;5571;48.110;-1.706;2023-02-07T15:24:26;11.80;94.20
11035;DHT22;5571;48.110;-1.706;2023-02-07T15:26:56;11.90;94.20
11035;DHT22;5571;48.110;-1.706;2023-02-07T15:29:32;12.00;93.70
11035;DHT22;5571;48.110;-1.706;2023-02-07T15:31:58;11.90;93.70
11035;DHT22;5571;48.110;-1.706;2023-02-07T15:34:31;12.00;93.90
11035;DHT22;5571;48.110;-1.706;2023-02-07T15:36:59;12.10;93.60
11035;DHT22;5571;48.110;-1.706;2023-02-07T15:39:28;12.00;93.80
11035;DHT22;5571;48.110;-1.706;2023-02-07T15:41:55;12.40;93.90
11035;DHT22;5571;48.110;-1.706;2023-02-07T15:44:23;12.60;93.70
11035;DHT22;5571;48.110;-1.706;2023-02-07T15:47:03;12.50;93.40
11035;DHT22;5571;48.110;-1.706;2023-02-07T15:49:40;12.20;93.80
11035;DHT22;5571;48.110;-1.706;2023-02-07T15:52:42;12.10;94.20
11035;DHT22;5571;48.110;-1.706;2023-02-07T15:55:31;12.10;94.40
11035;DHT22;5571;48.110;-1.706;2023-02-07T15:57:57;12.10;94.30
11035;DHT22;5571;48.110;-1.706;2023-02-07T16:00:28;11.80;94.50
11035;DHT22;5571;48.110;-1.706;2023-02-07T16:03:02;11.40;94.70
11035;DHT22;5571;48.110;-1.706;2023-02-07T16:05:34;11.10;95.00
11035;DHT22;5571;48.110;-1.706;2023-02-07T16:08:30;10.70;95.60
11035;DHT22;5571;48.110;-1.706;2023-02-07T16:14:38;9.90;96.90
11035;DHT22;5571;48.110;-1.706;2023-02-07T16:16:51;9.60;97.20
11035;DHT22;5571;48.110;-1.706;2023-02-07T16:19:22;9.40;97.60
11035;DHT22;5571;48.110;-1.706;2023-02-07T16:22:01;9.20;98.10
11035;DHT22;5571;48.110;-1.706;2023-02-07T16:24:27;9.00;98.20
11035;DHT22;5571;48.110;-1.706;2023-02-07T16:26:55;8.90;98.60
11035;DHT22;5571;48.110;-1.706;2023-02-07T16:29:23;8.70;98.60
11035;DHT22;5571;48.110;-1.706;2023-02-07T16:31:51;8.70;98.90
11035;DHT22;5571;48.110;-1.706;2023-02-07T16:34:18;8.60;99.10
11035;DHT22;5571;48.110;-1.706;2023-02-07T16:36:47;8.60;99.20
11035;DHT22;5571;48.110;-1.706;2023-02-07T16:39:13;8.50;99.30
11035;DHT22;5571;48.110;-1.706;2023-02-07T16:41:43;8.30;99.30
11035;DHT22;5571;48.110;-1.706;2023-02-07T16:44:17;8.20;99.60
11035;DHT22;5571;48.110;-1.706;2023-02-07T16:46:43;8.10;99.90
11035;DHT22;5571;48.110;-1.706;2023-02-07T16:49:16;8.10;99.90
11035;DHT22;5571;48.110;-1.706;2023-02-07T16:51:43;8.00;99.90
11035;DHT22;5571;48.110;-1.706;2023-02-07T16:54:09;8.00;99.90
11035;DHT22;5571;48.110;-1.706;2023-02-07T16:56:35;7.80;99.90
11035;DHT22;5571;48.110;-1.706;2023-02-07T16:59:01;7.70;99.90
11035;DHT22;5571;48.110;-1.706;2023-02-07T17:01:28;7.70;99.90
11035;DHT22;5571;48.110;-1.706;2023-02-07T17:03:54;7.60;99.90
11035;DHT22;5571;48.110;-1.706;2023-02-07T17:06:21;7.50;99.90
11035;DHT22;5571;48.110;-1.706;2023-02-07T17:08:48;7.50;99.90
11035;DHT22;5571;48.110;-1.706;2023-02-07T17:11:20;7.40;99.90
11035;DHT22;5571;48.110;-1.706;2023-02-07T17:13:57;7.40;99.90
11035;DHT22;5571;48.110;-1.706;2023-02-07T17:16:24;7.40;99.90
11035;DHT22;5571;48.110;-1.706;2023-02-07T17:18:52;7.30;99.90
11035;DHT22;5571;48.110;-1.706;2023-02-07T17:21:18;7.30;99.90
11035;DHT22;5571;48.110;-1.706;2023-02-07T17:23:46;7.20;99.90
11035;DHT22;5571;48.110;-1.706;2023-02-07T17:26:25;7.20;99.90
11035;DHT22;5571;48.110;-1.706;2023-02-07T17:28:52;7.10;99.90
11035;DHT22;5571;48.110;-1.706;2023-02-07T17:31:18;7.10;99.90
11035;DHT22;5571;48.110;-1.706;2023-02-07T17:33:44;7.00;99.90
11035;DHT22;5571;48.110;-1.706;2023-02-07T17:36:14;7.00;99.90
11035;DHT22;5571;48.110;-1.706;2023-02-07T17:38:40;7.00;99.90
11035;DHT22;5571;48.110;-1.706;2023-02-07T17:41:08;6.90;99.90
11035;DHT22;5571;48.110;-1.706;2023-02-07T17:43:35;6.90;99.90
11035;DHT22;5571;48.110;-1.706;2023-02-07T17:46:01;6.80;99.90
11035;DHT22;5571;48.110;-1.706;2023-02-07T17:48:27;6.80;99.90
11035;DHT22;5571;48.110;-1.706;2023-02-07T17:50:55;6.80;99.90
11035;DHT22;5571;48.110;-1.706;2023-02-07T17:53:20;6.80;99.90
11035;DHT22;5571;48.110;-1.706;2023-02-07T17:55:48;6.70;99.90
11035;DHT22;5571;48.110;-1.706;2023-02-07T17:58:16;6.70;99.90
11035;DHT22;5571;48.110;-1.706;2023-02-07T18:00:42;6.70;99.90
11035;DHT22;5571;48.110;-1.706;2023-02-07T18:03:08;6.70;99.90